Time;durP1;ratioP1;P1;durP2;ratioP2;P2;SDS_P1;SDS_P2;PMS_P1;PMS_P2;Temp;Humidity;BMP_temperature;BMP_pressure;BME280_temperature;BME280_humidity;BME280_pressure;Samples;Min_cycle;Max_cycle;Signal;HPM_P1;HPM_P2
2024/04/02 00:00:45;;;;;;;0.10;0.10;;;;;;;10.94;65.54;100208.72;5065341;28;20033;-76
2024/04/02 00:03:13;;;;;;;0.10;0.10;;;;;;;10.94;65.53;100216.69;5060132;28;20029;-77
2024/04/02 00:05:41;;;;;;;0.10;0.10;;;;;;;10.98;65.28;100215.66;5063055;28;20028;-77
2024/04/02 00:08:08;;;;;;;0.10;0.10;;;;;;;10.96;65.09;100225.44;5066759;28;20103;-77
2024/04/02 00:10:37;;;;;;;0.10;0.10;;;;;;;10.86;65.93;100224.00;5062947;28;20111;-76
2024/04/02 00:13:04;;;;;;;0.63;0.63;;;;;;;10.84;65.65;100220.50;5063255;28;20036;-77
2024/04/02 00:15:30;;;;;;;0.40;0.40;;;;;;;10.85;65.47;100227.56;5063086;28;20479;-76
2024/04/02 00:17:58;;;;;;;0.10;0.10;;;;;;;10.95;65.22;100228.13;5065666;28;20048;-78
2024/04/02 00:20:25;;;;;;;0.10;0.10;;;;;;;10.82;65.79;100232.97;5068442;28;20104;-77
2024/04/02 00:22:51;;;;;;;0.10;0.10;;;;;;;10.82;65.70;100233.81;5064647;28;20094;-77
2024/04/02 00:25:17;;;;;;;0.10;0.10;;;;;;;10.90;65.44;100236.22;5067166;28;20046;-78
2024/04/02 00:27:44;;;;;;;0.05;0.05;;;;;;;10.99;64.94;100235.94;5065177;28;20029;-77
2024/04/02 00:30:12;;;;;;;0.10;0.10;;;;;;;10.84;65.92;100242.59;5068780;28;20375;-77
2024/04/02 00:32:38;;;;;;;0.10;0.10;;;;;;;10.92;65.91;100234.41;5067773;28;20071;-78
2024/04/02 00:35:05;;;;;;;0.08;0.08;;;;;;;10.95;65.39;100241.38;5066506;28;20036;-77
2024/04/02 00:37:31;;;;;;;0.10;0.10;;;;;;;10.89;65.97;100238.94;5069648;28;20030;-77
2024/04/02 00:40:00;;;;;;;0.10;0.10;;;;;;;10.92;65.59;100242.34;5065321;28;20116;-77
2024/04/02 00:42:27;;;;;;;3.40;1.55;;;;;;;10.92;65.65;100238.84;5062910;28;20099;-77
2024/04/02 00:44:53;;;;;;;0.10;0.10;;;;;;;10.92;65.19;100231.75;5065033;28;20044;-76
2024/04/02 00:47:20;;;;;;;0.10;0.10;;;;;;;10.91;65.10;100237.09;5061665;28;20043;-77
2024/04/02 00:49:47;;;;;;;0.10;0.10;;;;;;;10.89;65.37;100238.94;5066571;28;20029;-78
2024/04/02 00:52:13;;;;;;;0.25;0.25;;;;;;;10.77;65.99;100234.91;5068376;28;20495;-77
2024/04/02 00:54:41;;;;;;;0.10;0.10;;;;;;;10.81;65.56;100241.81;5060072;28;20033;-77
2024/04/02 00:57:08;;;;;;;0.20;0.20;;;;;;;10.80;65.28;100240.97;5064201;28;20048;-78
2024/04/02 00:59:35;;;;;;;0.08;0.08;;;;;;;10.76;65.79;100243.75;5061768;28;20021;-76
2024/04/02 01:02:02;;;;;;;0.10;0.10;;;;;;;10.74;65.82;100242.91;5062964;28;20036;-77
2024/04/02 01:04:29;;;;;;;0.10;0.10;;;;;;;10.76;66.26;100254.34;5062771;28;20029;-76
2024/04/02 01:06:56;;;;;;;0.10;0.10;;;;;;;10.76;65.84;100249.06;5067099;28;20467;-77
2024/04/02 01:09:23;;;;;;;0.10;0.10;;;;;;;10.73;65.54;100250.00;5060000;28;20017;-76
2024/04/02 01:11:49;;;;;;;0.10;0.10;;;;;;;10.72;65.50;100255.38;5061665;28;20048;-77
2024/04/02 01:14:15;;;;;;;0.08;0.08;;;;;;;10.67;65.67;100258.16;5063765;28;20032;-75
2024/04/02 01:16:42;;;;;;;0.00;0.00;;;;;;;10.65;65.81;100259.97;5064467;28;20040;-76
2024/04/02 01:19:10;;;;;;;0.10;0.10;;;;;;;10.61;66.17;100261.81;5066085;28;20032;-76
2024/04/02 01:21:38;;;;;;;0.10;0.10;;;;;;;10.57;66.12;100265.50;5064218;28;20075;-76
2024/04/02 01:24:05;;;;;;;0.10;0.10;;;;;;;10.55;66.16;100263.81;5063366;28;20041;-76
2024/04/02 01:26:31;;;;;;;0.10;0.10;;;;;;;10.55;66.24;100266.44;5059914;28;20510;-76
2024/04/02 01:29:00;;;;;;;0.10;0.10;;;;;;;10.55;66.11;100261.16;5063124;28;20060;-77
2024/04/02 01:31:27;;;;;;;0.17;0.17;;;;;;;10.45;66.74;100271.13;5057689;28;20028;-76
2024/04/02 01:33:53;;;;;;;0.00;0.00;;;;;;;10.48;66.26;100271.94;5065833;28;20024;-75
2024/04/02 01:36:20;;;;;;;0.10;0.10;;;;;;;10.43;66.62;100273.84;5064789;28;20036;-77
2024/04/02 01:38:46;;;;;;;1.02;1.00;;;;;;;10.32;67.00;100271.47;5072530;28;20574;-76
2024/04/02 01:41:12;;;;;;;0.00;0.00;;;;;;;10.33;66.99;100270.56;5063256;28;20075;-77
2024/04/02 01:43:39;;;;;;;0.10;0.10;;;;;;;10.28;67.37;100274.22;5066785;28;20028;-77
2024/04/02 01:46:05;;;;;;;0.00;0.00;;;;;;;10.25;67.31;100269.88;5070830;28;20028;-76
2024/04/02 01:48:32;;;;;;;0.10;0.10;;;;;;;10.25;67.19;100269.88;5067136;28;20495;-78
2024/04/02 01:50:58;;;;;;;0.10;0.10;;;;;;;10.25;67.45;100274.31;5065552;28;20033;-77
2024/04/02 01:53:25;;;;;;;0.10;0.10;;;;;;;10.20;67.61;100277.09;5068558;28;20075;-78
2024/04/02 01:55:51;;;;;;;0.68;0.68;;;;;;;10.20;67.67;100279.75;5074228;28;20028;-78
2024/04/02 01:58:17;;;;;;;0.00;0.00;;;;;;;10.13;68.26;100279.06;5071819;28;20040;-79
2024/04/02 02:00:45;;;;;;;0.10;0.10;;;;;;;10.15;68.06;100274.56;5068354;28;20036;-75
2024/04/02 02:03:11;;;;;;;0.10;0.10;;;;;;;10.13;67.96;100278.16;5070647;28;20027;-77
2024/04/02 02:05:38;;;;;;;0.10;0.10;;;;;;;10.15;67.08;100277.22;5065520;28;20024;-76
2024/04/02 02:08:06;;;;;;;0.10;0.10;;;;;;;10.11;68.00;100278.22;5071120;28;20395;-76
2024/04/02 02:10:33;;;;;;;0.30;0.30;;;;;;;10.10;68.20;100283.56;5070233;28;20494;-76
2024/04/02 02:13:00;;;;;;;0.10;0.10;;;;;;;10.06;68.37;100276.63;5072188;28;20256;-77
2024/04/02 02:15:26;;;;;;;0.10;0.10;;;;;;;10.02;69.14;100273.19;5070447;28;20039;-77
2024/04/02 02:17:53;;;;;;;0.00;0.00;;;;;;;10.01;69.08;100280.25;5069728;28;20531;-76
2024/04/02 02:20:19;;;;;;;0.10;0.10;;;;;;;10.09;68.50;100282.66;5068169;28;20029;-76
2024/04/02 02:22:46;;;;;;;0.10;0.10;;;;;;;10.10;69.19;100283.56;5066842;28;20042;-77
2024/04/02 02:25:12;;;;;;;0.10;0.10;;;;;;;10.19;68.30;100283.28;5064617;28;20393;-76
2024/04/02 02:27:40;;;;;;;0.10;0.10;;;;;;;10.20;68.59;100282.38;5071289;28;20028;-78
2024/04/02 02:30:08;;;;;;;0.10;0.10;;;;;;;10.22;68.32;100284.97;5071283;28;20504;-77
2024/04/02 02:32:34;;;;;;;0.10;0.10;;;;;;;10.19;68.54;100280.66;5065620;28;20032;-78
2024/04/02 02:35:01;;;;;;;0.10;0.10;;;;;;;10.15;68.70;100282.50;5067435;28;20036;-77
2024/04/02 02:37:28;;;;;;;0.10;0.10;;;;;;;10.18;68.16;100281.56;5068839;28;20032;-77
2024/04/02 02:39:54;;;;;;;0.10;0.10;;;;;;;10.11;68.43;100285.31;5069353;28;20367;-77
2024/04/02 02:42:21;;;;;;;0.10;0.10;;;;;;;10.13;68.47;100288.75;5068631;28;20488;-76
2024/04/02 02:44:47;;;;;;;0.10;0.10;;;;;;;10.08;68.70;100288.00;5066771;28;20024;-76
2024/04/02 02:47:14;;;;;;;0.10;0.10;;;;;;;10.11;68.61;100294.09;5064323;28;20497;-76
2024/04/02 02:49:40;;;;;;;0.10;0.10;;;;;;;10.17;68.39;100287.78;5065850;28;20460;-78
2024/04/02 02:52:06;;;;;;;0.10;0.10;;;;;;;10.10;68.81;100291.50;5066786;28;20056;-77
2024/04/02 02:54:32;;;;;;;0.10;0.10;;;;;;;10.12;68.58;100302.91;5066560;28;20025;-75
2024/04/02 02:56:58;;;;;;;0.10;0.10;;;;;;;10.10;68.92;100304.72;5064104;28;20083;-75
2024/04/02 02:59:25;;;;;;;0.10;0.10;;;;;;;10.13;68.65;100310.81;5063119;28;20017;-76
2024/04/02 03:01:51;;;;;;;0.10;0.10;;;;;;;10.13;68.73;100313.47;5070810;28;20035;-76
2024/04/02 03:04:17;;;;;;;0.10;0.10;;;;;;;10.16;68.71;100315.16;5066822;28;20071;-77
2024/04/02 03:06:43;;;;;;;0.10;0.10;;;;;;;10.13;68.91;100315.22;5066657;28;20094;-77
2024/04/02 03:09:11;;;;;;;1.08;1.08;;;;;;;10.15;68.91;100316.91;5069261;28;20020;-78
2024/04/02 03:11:37;;;;;;;0.10;0.10;;;;;;;10.14;69.34;100319.63;5070882;28;20062;-77
2024/04/02 03:14:03;;;;;;;0.10;0.10;;;;;;;10.20;68.78;100319.44;5069820;28;20499;-77
2024/04/02 03:16:29;;;;;;;0.10;0.10;;;;;;;10.17;69.13;100323.06;5069094;28;20036;-77
2024/04/02 03:18:56;;;;;;;0.10;0.10;;;;;;;10.15;68.95;100329.31;5067979;28;20029;-78
2024/04/02 03:21:22;;;;;;;0.10;0.10;;;;;;;10.12;69.07;100332.00;5068878;28;20032;-78
2024/04/02 03:23:48;;;;;;;0.10;0.10;;;;;;;10.13;69.35;100332.00;5061426;28;20034;-77
2024/04/02 03:26:15;;;;;;;0.40;0.40;;;;;;;10.21;69.04;100331.78;5067730;28;20066;-78
2024/04/02 03:28:41;;;;;;;0.55;0.55;;;;;;;10.26;68.80;100329.88;5065485;28;20029;-78
2024/04/02 03:31:08;;;;;;;0.32;0.32;;;;;;;10.28;68.40;100337.78;5069050;28;20068;-76
2024/04/02 03:33:34;;;;;;;0.10;0.10;;;;;;;10.27;68.57;100336.03;5067481;28;20502;-77
2024/04/02 03:36:03;;;;;;;0.10;0.10;;;;;;;10.22;68.94;100336.19;5067205;28;20078;-78
2024/04/02 03:38:30;;;;;;;0.10;0.10;;;;;;;10.25;68.60;100340.50;5070929;28;20153;-77
2024/04/02 03:41:08;;;;;;;0.13;0.13;;;;;;;10.28;68.70;100353.66;5068729;28;20037;-77
2024/04/02 03:43:37;;;;;;;0.10;0.10;;;;;;;10.18;68.85;100350.38;5070289;28;20025;-76
2024/04/02 03:46:04;;;;;;;0.10;0.10;;;;;;;10.12;69.38;100355.84;5066568;28;20035;-76
2024/04/02 03:48:30;;;;;;;0.10;0.10;;;;;;;10.17;69.06;100354.81;5067540;28;20086;-76
2024/04/02 03:50:57;;;;;;;0.10;0.10;;;;;;;10.16;68.91;100358.38;5071506;28;20415;-78
2024/04/02 03:53:23;;;;;;;0.10;0.10;;;;;;;10.14;68.87;100357.56;5073259;28;20083;-78
2024/04/02 03:55:56;;;;;;;0.20;0.20;;;;;;;10.18;68.88;100363.63;5075235;28;20036;-76
2024/04/02 03:58:23;;;;;;;1.25;0.30;;;;;;;9.97;70.12;100363.28;5068872;28;20419;-78
2024/04/02 04:00:49;;;;;;;0.10;0.10;;;;;;;10.12;69.32;100361.13;5074573;28;20025;-78
2024/04/02 04:03:17;;;;;;;0.10;0.10;;;;;;;10.07;69.48;100361.28;5078696;28;20246;-76
2024/04/02 04:05:43;;;;;;;0.10;0.10;;;;;;;10.08;69.71;100367.41;5075355;28;20546;-77
2024/04/02 04:08:10;;;;;;;0.10;0.10;;;;;;;10.10;69.32;100358.53;5077380;28;20028;-77
2024/04/02 04:10:37;;;;;;;0.10;0.10;;;;;;;10.11;69.82;100364.72;5075189;28;20022;-77
2024/04/02 04:13:03;;;;;;;0.15;0.15;;;;;;;10.12;69.89;100363.78;5071517;28;20037;-77
2024/04/02 04:15:30;;;;;;;0.10;0.10;;;;;;;10.13;70.17;100365.53;5069444;28;20048;-76
2024/04/02 04:17:56;;;;;;;0.10;0.10;;;;;;;10.19;69.61;100368.00;5068742;28;20068;-75
2024/04/02 04:20:26;;;;;;;0.10;0.10;;;;;;;10.21;69.39;100376.78;5063619;28;20033;-75
2024/04/02 04:22:52;;;;;;;0.15;0.15;;;;;;;10.15;69.67;100374.31;5063884;28;20027;-76
2024/04/02 04:25:19;;;;;;;0.10;0.10;;;;;;;10.10;69.66;100376.19;5066545;28;20029;-76
2024/04/02 04:27:46;;;;;;;0.35;0.35;;;;;;;10.16;69.93;100379.56;5064815;28;20138;-76
2024/04/02 04:30:12;;;;;;;0.10;0.10;;;;;;;10.14;70.02;100381.38;5061956;28;20124;-77
2024/04/02 04:32:38;;;;;;;0.10;0.10;;;;;;;10.20;70.03;100383.00;5067696;28;20028;-76
2024/04/02 04:35:05;;;;;;;0.10;0.10;;;;;;;10.23;69.24;100376.75;5063521;28;20033;-77
2024/04/02 04:37:31;;;;;;;0.10;0.10;;;;;;;10.16;70.00;100384.00;5063708;28;20097;-77
2024/04/02 04:39:58;;;;;;;0.10;0.10;;;;;;;10.19;70.08;100391.84;5062468;28;20028;-77
2024/04/02 04:42:25;;;;;;;0.20;0.20;;;;;;;10.17;70.35;100388.38;5068471;28;20024;-76
2024/04/02 04:44:52;;;;;;;0.10;0.10;;;;;;;10.18;70.22;100395.38;5067037;28;20028;-77
2024/04/02 04:47:19;;;;;;;0.10;0.10;;;;;;;10.20;70.21;100393.59;5064497;28;20033;-76
2024/04/02 04:49:45;;;;;;;0.15;0.15;;;;;;;10.17;70.62;100401.63;5065529;28;20032;-76
2024/04/02 04:52:11;;;;;;;0.10;0.10;;;;;;;10.25;70.39;100404.91;5065066;28;20036;-77
2024/04/02 04:54:37;;;;;;;0.10;0.10;;;;;;;10.23;70.18;100400.56;5067250;28;20028;-77
2024/04/02 04:57:04;;;;;;;1.33;1.10;;;;;;;10.27;70.05;100400.47;5068692;28;20024;-77
2024/04/02 04:59:30;;;;;;;0.10;0.10;;;;;;;10.25;70.23;100401.41;5063931;28;20023;-75
2024/04/02 05:01:56;;;;;;;0.22;0.22;;;;;;;10.30;69.83;100408.31;5064113;28;20980;-77
2024/04/02 05:04:22;;;;;;;0.20;0.20;;;;;;;10.36;69.98;100409.97;5062559;28;20472;-77
2024/04/02 05:06:49;;;;;;;2.40;1.10;;;;;;;10.35;70.03;100418.78;5061522;28;20638;-78
2024/04/02 05:09:15;;;;;;;0.10;0.10;;;;;;;10.33;69.88;100415.31;5063107;28;20056;-77
2024/04/02 05:11:41;;;;;;;0.10;0.10;;;;;;;10.36;69.86;100416.13;5067112;28;20040;-77
2024/04/02 05:14:07;;;;;;;0.10;0.10;;;;;;;10.32;70.25;100426.84;5067901;28;20036;-77
2024/04/02 05:16:34;;;;;;;0.10;0.10;;;;;;;10.31;70.36;100431.25;5069411;28;20051;-77
2024/04/02 05:19:01;;;;;;;0.10;0.10;;;;;;;10.36;69.97;100426.72;5069820;28;20391;-76
2024/04/02 05:21:28;;;;;;;1.63;1.48;;;;;;;10.36;69.93;100426.72;5074956;28;20028;-76
2024/04/02 05:23:54;;;;;;;1.77;1.67;;;;;;;10.43;70.02;100429.22;5070556;28;20488;-75
2024/04/02 05:26:20;;;;;;;0.30;0.30;;;;;;;10.48;69.53;100425.56;5065891;28;20158;-77
2024/04/02 05:28:47;;;;;;;0.10;0.10;;;;;;;10.47;70.14;100428.25;5064369;28;20075;-77
2024/04/02 05:31:15;;;;;;;0.10;0.10;;;;;;;10.53;70.33;100438.69;5070907;28;20028;-77
2024/04/02 05:33:42;;;;;;;0.10;0.10;;;;;;;10.53;70.40;100433.38;5067585;28;20100;-77
2024/04/02 05:36:08;;;;;;;0.10;0.10;;;;;;;10.56;70.04;100435.94;5061625;28;20044;-76
2024/04/02 05:38:34;;;;;;;0.20;0.20;;;;;;;10.56;70.12;100438.59;5063256;28;20059;-76
2024/04/02 05:41:00;;;;;;;0.10;0.10;;;;;;;10.55;69.63;100435.97;5062735;28;20458;-77
2024/04/02 05:43:27;;;;;;;0.10;0.10;;;;;;;10.54;70.30;100445.69;5067577;28;20050;-77
2024/04/02 05:45:53;;;;;;;0.10;0.10;;;;;;;10.55;69.95;100450.09;5069897;28;20074;-77
2024/04/02 05:48:19;;;;;;;0.10;0.10;;;;;;;10.63;69.93;100449.88;5068555;28;20039;-76
2024/04/02 05:51:01;;;;;;;0.10;0.10;;;;;;;10.79;69.68;100453.00;5063176;28;20059;-78
2024/04/02 05:53:27;;;;;;;0.10;0.10;;;;;;;10.76;69.87;100453.09;5060832;28;20033;-77
2024/04/02 05:55:53;;;;;;;0.10;0.10;;;;;;;10.83;69.96;100465.28;5070190;28;20025;-77
2024/04/02 05:58:19;;;;;;;0.15;0.15;;;;;;;10.86;70.04;100462.53;5074247;28;20515;-77
2024/04/02 06:00:45;;;;;;;2.30;2.20;;;;;;;10.95;70.16;100466.69;5069140;28;20041;-77
2024/04/02 06:03:12;;;;;;;0.10;0.10;;;;;;;10.97;69.86;100468.38;5069761;28;20028;-76
2024/04/02 06:05:38;;;;;;;0.60;0.60;;;;;;;11.02;69.39;100467.41;5071996;28;20155;-76
2024/04/02 06:08:04;;;;;;;0.10;0.10;;;;;;;10.97;70.07;100465.75;5068377;28;20020;-76
2024/04/02 06:10:31;;;;;;;1.17;1.08;;;;;;;11.08;69.66;100468.09;5067073;28;20025;-78
2024/04/02 06:12:57;;;;;;;0.10;0.10;;;;;;;11.06;70.26;100472.56;5060855;28;20072;-77
2024/04/02 06:15:24;;;;;;;0.10;0.10;;;;;;;11.02;69.75;100464.75;5058476;28;20063;-76
2024/04/02 06:17:51;;;;;;;1.08;1.08;;;;;;;11.12;69.54;100468.88;5061836;28;20451;-76
2024/04/02 06:20:17;;;;;;;0.10;0.10;;;;;;;11.04;69.95;100468.22;5067412;28;20031;-77
2024/04/02 06:22:43;;;;;;;0.10;0.10;;;;;;;10.97;70.03;100473.69;5062334;28;20032;-77
2024/04/02 06:25:09;;;;;;;0.10;0.10;;;;;;;11.10;70.38;100476.88;5068054;28;20044;-77
2024/04/02 06:27:35;;;;;;;0.95;0.95;;;;;;;11.10;70.18;100478.66;5066889;28;20035;-77
2024/04/02 06:30:02;;;;;;;0.10;0.10;;;;;;;11.32;69.88;100471.81;5071238;28;20051;-77
2024/04/02 06:32:28;;;;;;;0.08;0.08;;;;;;;11.37;69.92;100478.78;5066077;28;20043;-75
2024/04/02 06:34:54;;;;;;;0.10;0.10;;;;;;;11.44;69.94;100475.91;5064125;28;20052;-77
2024/04/02 06:37:20;;;;;;;0.15;0.15;;;;;;;11.53;69.49;100481.88;5067817;28;20044;-76
2024/04/02 06:39:46;;;;;;;0.17;0.17;;;;;;;11.55;69.34;100472.06;5070228;28;20048;-77
2024/04/02 06:42:13;;;;;;;0.10;0.10;;;;;;;11.63;68.86;100473.56;5068831;28;20027;-78
2024/04/02 06:44:39;;;;;;;0.10;0.10;;;;;;;11.70;69.16;100473.38;5067336;28;20056;-79
2024/04/02 06:47:05;;;;;;;0.10;0.10;;;;;;;11.51;68.75;100479.25;5070305;28;20025;-77
2024/04/02 06:49:31;;;;;;;0.10;0.10;;;;;;;11.77;69.05;100477.59;5068797;28;20107;-77
2024/04/02 06:51:57;;;;;;;0.10;0.10;;;;;;;11.76;68.16;100487.34;5070635;28;20036;-79
2024/04/02 06:54:23;;;;;;;0.10;0.10;;;;;;;11.57;68.23;100487.00;5063469;28;20057;-78
2024/04/02 06:56:49;;;;;;;0.10;0.10;;;;;;;11.73;68.23;100483.91;5071173;28;20065;-79
2024/04/02 06:59:16;;;;;;;3.22;0.98;;;;;;;11.75;67.96;100482.06;5073585;28;20119;-79
2024/04/02 07:01:42;;;;;;;0.45;0.45;;;;;;;11.87;67.88;100487.00;5071131;28;20028;-79
2024/04/02 07:04:08;;;;;;;0.17;0.17;;;;;;;11.90;67.61;100480.72;5074145;28;20027;-79
2024/04/02 07:06:34;;;;;;;0.15;0.15;;;;;;;11.92;67.94;100493.03;5071658;28;20070;-77
2024/04/02 07:09:00;;;;;;;0.20;0.20;;;;;;;11.93;67.48;100489.47;5068777;28;20067;-78
2024/04/02 07:11:26;;;;;;;0.10;0.10;;;;;;;11.92;67.76;100503.66;5070458;28;20060;-78
2024/04/02 07:13:52;;;;;;;0.10;0.10;;;;;;;11.96;67.85;100489.41;5065021;28;20024;-78
2024/04/02 07:16:19;;;;;;;0.13;0.13;;;;;;;12.02;67.70;100490.13;5071610;28;20020;-77
2024/04/02 07:18:45;;;;;;;0.10;0.10;;;;;;;12.12;67.25;100495.09;5069856;28;20116;-78
2024/04/02 07:21:11;;;;;;;0.10;0.10;;;;;;;12.21;67.19;100493.06;5070142;28;20024;-78
2024/04/02 07:23:40;;;;;;;0.10;0.10;;;;;;;12.25;66.69;100500.00;5062608;28;20037;-78
2024/04/02 07:26:06;;;;;;;0.10;0.10;;;;;;;12.23;66.77;100501.84;5063085;28;20505;-78
2024/04/02 07:28:33;;;;;;;0.75;0.75;;;;;;;12.34;66.25;100499.72;5067345;28;20029;-77
2024/04/02 07:31:00;;;;;;;0.20;0.20;;;;;;;12.20;65.98;100508.13;5067397;28;20027;-75
2024/04/02 07:33:26;;;;;;;0.10;0.10;;;;;;;12.28;65.86;100503.44;5061665;28;20391;-76
2024/04/02 07:35:56;;;;;;;0.10;0.10;;;;;;;12.29;65.71;100505.16;5063810;28;20029;-77
2024/04/02 07:38:22;;;;;;;0.30;0.30;;;;;;;12.30;66.01;100506.91;5061369;28;20035;-77
2024/04/02 07:40:49;;;;;;;0.10;0.10;;;;;;;12.19;66.55;100516.16;5060516;28;20029;-78
2024/04/02 07:43:15;;;;;;;0.10;0.10;;;;;;;12.36;65.86;100518.25;5063751;28;20424;-77
2024/04/02 07:45:49;;;;;;;0.10;0.10;;;;;;;12.47;65.85;100521.41;5068635;28;20032;-76
2024/04/02 07:48:15;;;;;;;0.10;0.10;;;;;;;12.43;65.75;100514.47;5062189;28;20388;-76
2024/04/02 07:50:41;;;;;;;0.05;0.05;;;;;;;12.45;65.44;100524.13;5063650;28;20024;-76
2024/04/02 07:53:07;;;;;;;0.22;0.22;;;;;;;12.52;64.83;100523.94;5062870;28;20123;-76
2024/04/02 07:55:34;;;;;;;0.10;0.10;;;;;;;12.49;64.79;100527.56;5065231;28;20033;-78
2024/04/02 07:58:00;;;;;;;0.10;0.10;;;;;;;12.67;65.00;100517.22;5059244;28;20032;-78
2024/04/02 08:00:26;;;;;;;0.10;0.10;;;;;;;12.71;65.26;100518.84;5064823;28;20083;-78
2024/04/02 08:02:53;;;;;;;0.40;0.40;;;;;;;12.68;64.54;100526.94;5063824;28;20033;-78
2024/04/02 08:05:19;;;;;;;0.20;0.20;;;;;;;12.65;64.47;100527.94;5067364;28;20036;-76
2024/04/02 08:07:46;;;;;;;0.08;0.08;;;;;;;12.77;63.92;100531.94;5063504;28;20056;-77
2024/04/02 08:10:13;;;;;;;0.10;0.10;;;;;;;12.90;63.95;100533.25;5064011;28;20024;-78
2024/04/02 08:12:39;;;;;;;0.40;0.40;;;;;;;12.97;63.74;100533.91;5067394;28;20036;-78
2024/04/02 08:15:06;;;;;;;0.10;0.10;;;;;;;12.87;62.98;100536.03;5061229;28;20037;-78
2024/04/02 08:17:33;;;;;;;0.30;0.30;;;;;;;12.94;63.03;100550.84;5060550;28;20044;-79
2024/04/02 08:19:59;;;;;;;0.10;0.10;;;;;;;12.89;62.74;100542.16;5069157;28;20044;-79
2024/04/02 08:22:25;;;;;;;0.10;0.10;;;;;;;13.08;62.86;100529.09;5061309;28;20021;-79
2024/04/02 08:24:55;;;;;;;8.07;1.17;;;;;;;12.97;62.26;100525.94;5069602;28;20028;-79
2024/04/02 08:27:21;;;;;;;0.10;0.10;;;;;;;13.23;62.49;100533.00;5066811;28;20021;-79
2024/04/02 08:29:49;;;;;;;0.10;0.10;;;;;;;13.26;62.01;100535.53;5069317;28;20025;-79
2024/04/02 08:32:15;;;;;;;0.10;0.10;;;;;;;13.31;61.65;100539.81;5065911;28;20496;-79
2024/04/02 08:34:42;;;;;;;0.10;0.10;;;;;;;13.30;61.76;100538.09;5067376;28;20024;-79
2024/04/02 08:37:08;;;;;;;0.10;0.10;;;;;;;13.31;61.10;100539.81;5068223;28;20494;-78
2024/04/02 08:39:35;;;;;;;0.10;0.10;;;;;;;13.36;61.14;100541.41;5069659;28;20594;-77
2024/04/02 08:42:02;;;;;;;0.35;0.35;;;;;;;13.47;60.96;100546.38;5074840;28;20028;-77
2024/04/02 08:44:32;;;;;;;0.10;0.10;;;;;;;13.53;60.08;100551.47;5072297;28;20033;-78
2024/04/02 08:46:59;;;;;;;0.10;0.10;;;;;;;13.75;59.99;100566.63;5076008;28;20021;-80
2024/04/02 08:49:26;;;;;;;0.10;0.10;;;;;;;13.80;59.77;100556.66;5064649;28;20025;-78
2024/04/02 08:51:53;;;;;;;0.10;0.10;;;;;;;13.83;59.08;100569.88;5067900;28;20045;-78
2024/04/02 08:54:19;;;;;;;0.10;0.10;;;;;;;13.75;59.01;100585.28;5066794;28;20028;-79
2024/04/02 08:56:46;;;;;;;0.10;0.10;;;;;;;13.63;58.90;100557.28;5069114;28;20381;-79
2024/04/02 08:59:14;;;;;;;0.10;0.10;;;;;;;13.58;59.07;100569.91;5067954;28;20036;-78
2024/04/02 09:01:41;;;;;;;0.10;0.10;;;;;;;13.48;59.55;100580.03;5068428;28;20028;-79
2024/04/02 09:04:09;;;;;;;0.10;0.10;;;;;;;13.61;59.80;100580.47;5066220;28;20043;-78
2024/04/02 09:06:37;;;;;;;0.20;0.20;;;;;;;13.63;59.66;100572.41;5070712;28;20565;-78
2024/04/02 09:09:05;;;;;;;0.10;0.10;;;;;;;13.73;59.34;100584.44;5070030;28;20025;-78
2024/04/02 09:11:32;;;;;;;0.10;0.10;;;;;;;13.53;59.23;100580.75;5065967;28;20024;-76
2024/04/02 09:14:02;;;;;;;0.10;0.10;;;;;;;13.43;59.16;100582.88;5068784;28;20039;-79
2024/04/02 09:16:35;;;;;;;0.13;0.13;;;;;;;13.56;59.72;100601.06;5070327;28;20610;-79
2024/04/02 09:19:01;;;;;;;0.03;0.03;;;;;;;13.34;60.87;100593.78;5069587;28;20024;-78
2024/04/02 09:21:27;;;;;;;5.38;0.73;;;;;;;13.18;62.10;100609.44;5063555;28;20047;-78
2024/04/02 09:23:54;;;;;;;0.10;0.10;;;;;;;13.20;62.98;100604.94;5067034;28;20044;-78
2024/04/02 09:26:22;;;;;;;0.10;0.10;;;;;;;13.23;62.74;100593.31;5071706;28;20601;-77
2024/04/02 09:28:49;;;;;;;0.15;0.15;;;;;;;13.24;63.00;100601.22;5076934;28;20308;-77
2024/04/02 09:31:16;;;;;;;0.10;0.10;;;;;;;13.29;63.43;100589.59;5067207;28;20028;-78
2024/04/02 09:33:46;;;;;;;0.10;0.10;;;;;;;13.32;64.11;100594.78;5068555;28;20088;-78
2024/04/02 09:39:04;;;;;;;0.10;0.10;;;;;;;13.48;63.91;100596.00;5091476;27;1251288;-76
2024/04/02 09:41:32;;;;;;;0.10;0.10;;;;;;;13.42;64.38;100601.53;5109360;28;20098;-78
2024/04/02 09:44:01;;;;;;;0.20;0.20;;;;;;;13.35;64.38;100598.19;5106383;28;20032;-76
2024/04/02 09:46:29;;;;;;;0.10;0.10;;;;;;;13.43;65.08;100598.84;5101246;28;20441;-76
2024/04/02 09:49:00;;;;;;;0.10;0.10;;;;;;;13.21;66.50;100603.16;5108028;28;20396;-77
2024/04/02 09:51:27;;;;;;;0.40;0.40;;;;;;;13.21;67.02;100609.34;5100984;28;20031;-77
2024/04/02 09:53:55;;;;;;;0.10;0.10;;;;;;;13.05;67.19;100616.97;5101112;28;20032;-75
2024/04/02 09:56:23;;;;;;;0.10;0.10;;;;;;;13.08;66.87;100616.88;5100347;28;20127;-76
2024/04/02 09:58:51;;;;;;;0.10;0.10;;;;;;;12.89;67.89;100613.94;5092417;28;20396;-76
2024/04/02 10:01:24;;;;;;;0.82;0.82;;;;;;;12.98;68.14;100620.75;5088110;28;22073;-77
2024/04/02 10:03:56;;;;;;;0.10;0.10;;;;;;;12.95;68.58;100612.88;5096433;28;20038;-76
2024/04/02 10:06:23;;;;;;;0.47;0.47;;;;;;;12.92;68.81;100613.88;5092729;28;20016;-78
2024/04/02 10:08:58;;;;;;;0.75;0.75;;;;;;;13.11;69.03;100614.09;5096575;28;20040;-78
2024/04/02 10:11:46;;;;;;;0.10;0.10;;;;;;;13.17;69.64;100617.47;5100989;28;20107;-78
2024/04/02 10:14:15;;;;;;;0.10;0.10;;;;;;;13.27;69.79;100613.56;5095212;28;20019;-78
2024/04/02 10:19:19;;;;;;;0.10;0.10;;;;;;;13.29;69.15;100608.22;5099534;27;20396;-78
2024/04/02 10:21:47;;;;;;;0.10;0.10;;;;;;;13.42;68.84;100609.53;5086405;28;20070;-76
2024/04/02 10:24:16;;;;;;;0.10;0.10;;;;;;;13.31;68.86;100604.56;5084653;28;20028;-76
2024/04/02 10:26:43;;;;;;;0.10;0.10;;;;;;;13.32;68.84;100602.75;5076609;28;20384;-77
2024/04/02 10:29:09;;;;;;;0.10;0.10;;;;;;;13.32;68.53;100602.75;5077578;28;20043;-77
2024/04/02 10:31:38;;;;;;;0.10;0.10;;;;;;;13.27;69.25;100603.81;5078314;28;20450;-78
2024/04/02 10:34:09;;;;;;;0.10;0.10;;;;;;;13.42;69.48;100607.75;5073156;28;20032;-78
2024/04/02 10:36:37;;;;;;;0.20;0.20;;;;;;;13.49;69.40;100611.03;5091098;28;20434;-78
2024/04/02 10:39:07;;;;;;;0.10;0.10;;;;;;;13.53;69.08;100610.03;5087841;28;20028;-80
2024/04/02 10:41:37;;;;;;;0.10;0.10;;;;;;;13.44;68.52;100599.69;5084962;28;20056;-81
2024/04/02 10:44:04;;;;;;;0.10;0.10;;;;;;;13.63;68.27;100593.72;5086860;28;20031;-80
2024/04/02 10:46:31;;;;;;;0.70;0.70;;;;;;;13.82;68.40;100600.09;5091297;28;20105;-80
2024/04/02 10:48:59;;;;;;;3.50;3.08;;;;;;;13.95;67.44;100604.97;5091661;28;20032;-79
2024/04/02 10:51:27;;;;;;;0.25;0.25;;;;;;;14.05;66.32;100611.66;5085425;28;20058;-81
2024/04/02 10:53:54;;;;;;;2.65;0.68;;;;;;;14.09;65.53;100597.28;5080129;28;20108;-79
2024/04/02 10:56:21;;;;;;;0.10;0.10;;;;;;;14.02;65.48;100606.47;5076383;28;20032;-79
2024/04/02 10:58:49;;;;;;;0.38;0.38;;;;;;;14.05;65.13;100590.34;5081744;28;20036;-79
2024/04/02 11:01:16;;;;;;;0.10;0.10;;;;;;;14.15;65.35;100586.41;5089618;28;20042;-79
2024/04/02 11:03:43;;;;;;;0.10;0.10;;;;;;;14.26;65.54;100598.47;5078780;28;20060;-79
2024/04/02 11:06:10;;;;;;;0.10;0.10;;;;;;;14.28;64.82;100601.91;5080965;28;20044;-81
2024/04/02 11:08:38;;;;;;;0.10;0.10;;;;;;;14.24;65.25;100599.38;5085623;28;20020;-80
2024/04/02 11:11:05;;;;;;;0.28;0.28;;;;;;;14.13;65.13;100603.38;5082188;28;20437;-80
2024/04/02 11:13:31;;;;;;;0.10;0.10;;;;;;;14.11;65.39;100599.94;5078653;28;20067;-78
2024/04/02 11:15:58;;;;;;;0.20;0.20;;;;;;;13.96;66.11;100606.72;5081674;28;20028;-79
2024/04/02 11:18:26;;;;;;;0.22;0.22;;;;;;;13.86;67.00;100606.19;5078629;28;20025;-79
2024/04/02 11:21:00;;;;;;;0.10;0.10;;;;;;;13.99;66.39;100611.91;5080664;28;20036;-78
2024/04/02 11:26:20;;;;;;;0.10;0.10;;;;;;;14.04;64.85;100609.94;5088489;28;20043;-80
2024/04/02 11:28:46;;;;;;;0.10;0.10;;;;;;;13.93;63.68;100612.13;5087655;28;20042;-80
2024/04/02 11:31:14;;;;;;;0.10;0.10;;;;;;;14.26;63.19;100609.13;5076926;28;20033;-80